DAL1268 KBOS-KSAN
Flight info
| Callsign | DAL1268 |
|---|---|
| Flight time | N/A |
| Altitude | 38000 |
| Route | BLZZR6 BLZZR BAF Q480 AIR J80 JAAVE/N0473F400 J80 MCI J24 SLN J18 HOGGZ LUCKI1 |
| Aircraft | A332/H-SDE3GHIJ2J3J5M1RVWXY/LB2D1 |
Departure
| Time | 2026-05-06 00:16 |
|---|---|
| Airport | Boston Logan International Airport (KBOS) |
Arrival
| Time | N/A |
|---|---|
| Airport | San Diego International Airport (KSAN) |
| Time | Latitude | Longitude | Altitude | Speed | Heading |
|---|---|---|---|---|---|
| 2026-05-05 23:56 | 42.36937 | -71.01728 | 29 ft | 0 kts | 335° |
| 2026-05-06 00:07 | 42.36928 | -71.01722 | 29 ft | 3 kts | 345° |
| 2026-05-06 00:07 | 42.36910 | -71.01721 | 27 ft | 1 kts | 28° |
| 2026-05-06 00:08 | 42.36910 | -71.01722 | 27 ft | 0 kts | 28° |
| 2026-05-06 00:08 | 42.36902 | -71.01727 | 27 ft | 0 kts | 40° |
| 2026-05-06 00:08 | 42.36902 | -71.01726 | 28 ft | 0 kts | 44° |
| 2026-05-06 00:10 | 42.36905 | -71.01722 | 28 ft | 2 kts | 44° |
| 2026-05-06 00:10 | 42.36929 | -71.01690 | 29 ft | 8 kts | 44° |
| 2026-05-06 00:10 | 42.36982 | -71.01621 | 31 ft | 12 kts | 39° |
| 2026-05-06 00:10 | 42.37042 | -71.01519 | 31 ft | 14 kts | 83° |
| 2026-05-06 00:11 | 42.36993 | -71.01412 | 28 ft | 15 kts | 136° |
| 2026-05-06 00:11 | 42.36922 | -71.01308 | 29 ft | 14 kts | 111° |
| 2026-05-06 00:11 | 42.36920 | -71.01194 | 28 ft | 12 kts | 71° |
| 2026-05-06 00:11 | 42.36968 | -71.01124 | 28 ft | 10 kts | 33° |
| 2026-05-06 00:12 | 42.37044 | -71.01068 | 26 ft | 16 kts | 27° |
| 2026-05-06 00:12 | 42.37161 | -71.00990 | 29 ft | 21 kts | 26° |
| 2026-05-06 00:12 | 42.37302 | -71.00900 | 28 ft | 21 kts | 21° |
| 2026-05-06 00:12 | 42.37436 | -71.00830 | 26 ft | 20 kts | 20° |
| 2026-05-06 00:13 | 42.37562 | -71.00771 | 28 ft | 19 kts | 18° |
| 2026-05-06 00:13 | 42.37683 | -71.00716 | 31 ft | 18 kts | 18° |
| 2026-05-06 00:13 | 42.37795 | -71.00661 | 33 ft | 17 kts | 27° |
| 2026-05-06 00:13 | 42.37834 | -71.00581 | 32 ft | 0 kts | 90° |
| 2026-05-06 00:14 | 42.37834 | -71.00578 | 32 ft | 0 kts | 90° |
| 2026-05-06 00:14 | 42.37832 | -71.00564 | 32 ft | 4 kts | 98° |
| 2026-05-06 00:14 | 42.37820 | -71.00525 | 31 ft | 6 kts | 122° |
| 2026-05-06 00:15 | 42.37788 | -71.00490 | 30 ft | 5 kts | 158° |
| 2026-05-06 00:15 | 42.37759 | -71.00489 | 29 ft | 0 kts | 199° |
| 2026-05-06 00:15 | 42.37752 | -71.00492 | 30 ft | 7 kts | 200° |
| 2026-05-06 00:15 | 42.37496 | -71.00615 | 28 ft | 78 kts | 199° |
| 2026-05-06 00:16 | 42.36731 | -71.00972 | 42 ft | 152 kts | 198° |
| 2026-05-06 00:16 | 42.35555 | -71.01511 | 372 ft | 198 kts | 193° |
| 2026-05-06 00:16 | 42.34216 | -71.01453 | 1824 ft | 199 kts | 170° |
| 2026-05-06 00:16 | 42.33049 | -71.00202 | 2975 ft | 240 kts | 138° |
| 2026-05-06 00:17 | 42.32040 | -70.98275 | 3874 ft | 260 kts | 135° |
| 2026-05-06 00:17 | 42.31220 | -70.95939 | 4598 ft | 296 kts | 108° |
| 2026-05-06 00:17 | 42.31242 | -70.93095 | 4927 ft | 305 kts | 83° |
| 2026-05-06 00:17 | 42.31695 | -70.90213 | 4838 ft | 319 kts | 79° |
| 2026-05-06 00:18 | 42.32199 | -70.87307 | 4574 ft | 315 kts | 79° |
| 2026-05-06 00:18 | 42.32668 | -70.84442 | 4432 ft | 309 kts | 80° |
| 2026-05-06 00:18 | 42.33025 | -70.81613 | 4432 ft | 308 kts | 91° |
| 2026-05-06 00:18 | 42.32708 | -70.78816 | 4636 ft | 297 kts | 118° |
| 2026-05-06 00:19 | 42.31827 | -70.76310 | 5291 ft | 294 kts | 125° |